Time;durP1;ratioP1;P1;durP2;ratioP2;P2;SDS_P1;SDS_P2;PMS_P1;PMS_P2;Temp;Humidity;BMP_temperature;BMP_pressure;BME280_temperature;BME280_humidity;BME280_pressure;Samples;Min_cycle;Max_cycle;Signal;HPM_P1;HPM_P2
2022/10/20 00:01:53;;;;;;;13.40;8.00;;;;;;;;;;5089000;28;20340;-68
2022/10/20 00:04:19;;;;;;;12.07;9.27;;;;;;;;;;5073242;28;20666;-69
2022/10/20 00:06:45;;;;;;;10.30;8.10;;;;;;;;;;5089605;28;20280;-71
2022/10/20 00:09:11;;;;;;;12.20;8.70;;;;;;;;;;5088973;28;20748;-68
2022/10/20 00:11:37;;;;;;;12.43;8.83;;;;;;;;;;5073762;28;20170;-68
2022/10/20 00:14:03;;;;;;;10.87;8.43;;;;;;;;;;5073061;28;20346;-68
2022/10/20 00:16:30;;;;;;;16.67;8.83;;;;;;;;;;5073143;28;20688;-68
2022/10/20 00:18:57;;;;;;;15.00;9.47;;;;;;;;;;5088881;28;20273;-68
2022/10/20 00:21:25;;;;;;;11.30;9.27;;;;;;;;;;5088801;28;20178;-69
2022/10/20 00:23:51;;;;;;;11.33;8.90;;;;;;;;;;5073114;28;20182;-68
2022/10/20 00:26:21;;;;;;;10.93;8.73;;;;;;;;;;5073625;28;20549;-71
2022/10/20 00:28:47;;;;;;;15.80;9.07;;;;;;;;;;5088696;28;20186;-71
2022/10/20 00:31:14;;;;;;;10.63;8.87;;;;;;;;;;5073120;28;20174;-70
2022/10/20 00:33:40;;;;;;;18.97;10.30;;;;;;;;;;5076364;28;20662;-71
2022/10/20 00:36:07;;;;;;;14.70;9.27;;;;;;;;;;5077523;28;20252;-68
2022/10/20 00:38:33;;;;;;;11.10;9.80;;;;;;;;;;5077103;28;20280;-71
2022/10/20 00:41:01;;;;;;;12.70;9.70;;;;;;;;;;5077109;28;20265;-71
2022/10/20 00:43:44;;;;;;;11.13;9.90;;;;;;;;;;5092734;28;20186;-71
2022/10/20 00:46:12;;;;;;;12.80;10.43;;;;;;;;;;5092657;28;20197;-70
2022/10/20 00:48:38;;;;;;;13.73;10.17;;;;;;;;;;5092454;28;20255;-70
2022/10/20 00:51:04;;;;;;;11.53;9.80;;;;;;;;;;5076835;28;20216;-68
2022/10/20 00:53:30;;;;;;;13.60;9.27;;;;;;;;;;5076948;28;20237;-67
2022/10/20 00:55:57;;;;;;;12.30;9.77;;;;;;;;;;5077118;28;20208;-70
2022/10/20 00:58:24;;;;;;;14.40;10.60;;;;;;;;;;5092436;28;20208;-69
2022/10/20 01:00:51;;;;;;;15.37;10.63;;;;;;;;;;5076818;28;20186;-69
2022/10/20 01:03:20;;;;;;;20.77;9.97;;;;;;;;;;5092346;28;20192;-70
2022/10/20 01:05:46;;;;;;;15.10;10.53;;;;;;;;;;5076987;28;20195;-70
2022/10/20 01:08:12;;;;;;;14.63;9.93;;;;;;;;;;5075601;28;20677;-69
2022/10/20 01:10:40;;;;;;;14.30;10.67;;;;;;;;;;5076652;28;20178;-69
2022/10/20 01:13:10;;;;;;;14.83;10.77;;;;;;;;;;5076436;28;20201;-69
2022/10/20 01:15:43;;;;;;;15.50;10.67;;;;;;;;;;5076855;28;20638;-69
2022/10/20 01:18:28;;;;;;;13.47;11.20;;;;;;;;;;5076914;28;20205;-72
2022/10/20 01:21:03;;;;;;;15.10;11.03;;;;;;;;;;5076326;28;20163;-69
2022/10/20 01:23:48;;;;;;;19.67;10.70;;;;;;;;;;5076658;28;20177;-69
2022/10/20 01:26:42;;;;;;;14.90;10.23;;;;;;;;;;5076523;28;20181;-69
2022/10/20 01:29:13;;;;;;;14.07;11.50;;;;;;;;;;5076220;28;20165;-69
2022/10/20 01:31:39;;;;;;;14.07;10.77;;;;;;;;;;5091859;28;20174;-69
2022/10/20 01:34:05;;;;;;;15.87;11.40;;;;;;;;;;5091759;28;20554;-69
2022/10/20 01:36:50;;;;;;;15.83;11.90;;;;;;;;;;5091971;28;20607;-70
2022/10/20 01:39:19;;;;;;;14.10;11.90;;;;;;;;;;5076135;28;20174;-70
2022/10/20 01:41:49;;;;;;;15.43;11.90;;;;;;;;;;5076244;28;20234;-70
2022/10/20 01:44:16;;;;;;;17.83;11.57;;;;;;;;;;5091559;28;20185;-69
2022/10/20 01:46:44;;;;;;;17.57;11.87;;;;;;;;;;5091333;28;20219;-69
2022/10/20 01:49:10;;;;;;;20.70;12.03;;;;;;;;;;5076077;28;20245;-70
2022/10/20 01:51:36;;;;;;;16.47;11.80;;;;;;;;;;5091512;28;20304;-70
2022/10/20 01:54:02;;;;;;;13.20;11.17;;;;;;;;;;5076099;28;20280;-70
2022/10/20 01:56:41;;;;;;;18.03;12.27;;;;;;;;;;5075789;28;20177;-69
2022/10/20 01:59:10;;;;;;;15.07;12.30;;;;;;;;;;5075681;28;20634;-70
2022/10/20 02:01:55;;;;;;;18.97;12.60;;;;;;;;;;5075667;28;20170;-70
2022/10/20 02:04:26;;;;;;;19.50;12.47;;;;;;;;;;5075929;28;20252;-69
2022/10/20 02:06:52;;;;;;;17.50;12.30;;;;;;;;;;5075636;28;20251;-69
2022/10/20 02:09:22;;;;;;;16.07;11.27;;;;;;;;;;5091174;28;20181;-69
2022/10/20 02:12:07;;;;;;;15.70;11.97;;;;;;;;;;5075503;28;20162;-69
2022/10/20 02:14:34;;;;;;;17.50;13.10;;;;;;;;;;5097239;28;20185;-69
2022/10/20 02:17:02;;;;;;;16.93;12.03;;;;;;;;;;5099745;28;20554;-70
2022/10/20 02:19:31;;;;;;;16.53;12.80;;;;;;;;;;5084448;28;20177;-70
2022/10/20 02:21:57;;;;;;;16.90;12.80;;;;;;;;;;5097923;28;20181;-69
2022/10/20 02:24:25;;;;;;;18.20;13.47;;;;;;;;;;5075772;28;20177;-69
2022/10/20 02:26:52;;;;;;;14.03;11.67;;;;;;;;;;5075368;28;20674;-69
2022/10/20 02:29:20;;;;;;;19.07;13.30;;;;;;;;;;5090873;28;20236;-69
2022/10/20 02:31:47;;;;;;;16.87;12.87;;;;;;;;;;5090796;28;20654;-69
2022/10/20 02:34:14;;;;;;;15.13;12.70;;;;;;;;;;5075707;28;20205;-70
2022/10/20 02:36:41;;;;;;;10.90;9.53;;;;;;;;;;5075357;28;20218;-69
2022/10/20 02:39:07;;;;;;;16.93;12.37;;;;;;;;;;5090610;28;20232;-69
2022/10/20 02:41:33;;;;;;;15.60;11.47;;;;;;;;;;5075241;28;20177;-71
2022/10/20 02:43:59;;;;;;;19.97;12.97;;;;;;;;;;5074862;28;20190;-69
2022/10/20 02:46:26;;;;;;;19.63;12.97;;;;;;;;;;5090220;28;20251;-69
2022/10/20 02:48:51;;;;;;;15.80;12.67;;;;;;;;;;5075204;28;20201;-71
2022/10/20 02:51:17;;;;;;;18.37;13.13;;;;;;;;;;5074812;28;20178;-69
2022/10/20 02:53:44;;;;;;;16.53;13.20;;;;;;;;;;5074603;28;20247;-70
2022/10/20 02:56:10;;;;;;;19.73;12.97;;;;;;;;;;5089690;28;20178;-69
2022/10/20 02:58:36;;;;;;;17.77;13.03;;;;;;;;;;5074506;28;20178;-68
2022/10/20 03:01:03;;;;;;;16.87;12.87;;;;;;;;;;5074843;28;20174;-68
2022/10/20 03:03:29;;;;;;;18.10;13.13;;;;;;;;;;5074417;28;20273;-69
2022/10/20 03:05:55;;;;;;;17.93;13.73;;;;;;;;;;5074294;28;20189;-69
2022/10/20 03:08:21;;;;;;;15.40;12.63;;;;;;;;;;5090420;28;20209;-69
2022/10/20 03:10:47;;;;;;;19.77;13.40;;;;;;;;;;5074359;28;20219;-69
2022/10/20 03:13:14;;;;;;;18.60;13.33;;;;;;;;;;5073956;28;20280;-69
2022/10/20 03:15:40;;;;;;;18.23;13.97;;;;;;;;;;5074231;28;20252;-70
2022/10/20 03:18:06;;;;;;;18.07;12.93;;;;;;;;;;5074269;28;20194;-70
2022/10/20 03:20:33;;;;;;;17.77;13.03;;;;;;;;;;5094047;28;20280;-69
2022/10/20 03:22:59;;;;;;;16.03;13.70;;;;;;;;;;5078899;28;20189;-69
2022/10/20 03:25:25;;;;;;;14.67;12.67;;;;;;;;;;5079714;28;20260;-69
2022/10/20 03:27:51;;;;;;;18.43;13.53;;;;;;;;;;5091746;28;20229;-69
2022/10/20 03:30:17;;;;;;;18.63;15.00;;;;;;;;;;5074665;28;20177;-69
2022/10/20 03:32:43;;;;;;;16.90;14.07;;;;;;;;;;5074476;28;20202;-70
2022/10/20 03:35:09;;;;;;;19.50;14.27;;;;;;;;;;5074160;28;20204;-70
2022/10/20 03:37:35;;;;;;;21.27;14.70;;;;;;;;;;5074236;28;20194;-70
2022/10/20 03:40:01;;;;;;;19.17;13.83;;;;;;;;;;5073795;28;20185;-69
2022/10/20 03:42:27;;;;;;;19.77;14.43;;;;;;;;;;5089225;28;20230;-70
2022/10/20 03:44:53;;;;;;;16.33;14.03;;;;;;;;;;5073847;28;20182;-69
2022/10/20 03:47:19;;;;;;;20.17;13.47;;;;;;;;;;5073330;28;20774;-70
2022/10/20 03:49:45;;;;;;;19.27;14.80;;;;;;;;;;5073848;28;20178;-70
2022/10/20 03:52:10;;;;;;;18.27;13.90;;;;;;;;;;5088976;28;20189;-69
2022/10/20 03:54:37;;;;;;;18.40;13.43;;;;;;;;;;5088889;28;20173;-70
2022/10/20 03:57:03;;;;;;;19.20;13.57;;;;;;;;;;5073495;28;20251;-71
2022/10/20 03:59:29;;;;;;;20.80;14.20;;;;;;;;;;5073482;28;20201;-69
2022/10/20 04:01:55;;;;;;;18.13;14.20;;;;;;;;;;5073119;28;20181;-70
2022/10/20 04:04:21;;;;;;;18.47;13.37;;;;;;;;;;5088645;28;20174;-70
2022/10/20 04:06:47;;;;;;;23.73;14.27;;;;;;;;;;5072407;28;20197;-69
2022/10/20 04:09:12;;;;;;;17.73;12.43;;;;;;;;;;5073035;28;20173;-70
2022/10/20 04:11:38;;;;;;;15.80;12.77;;;;;;;;;;5073294;28;20185;-70
2022/10/20 04:14:04;;;;;;;20.10;13.60;;;;;;;;;;5088462;28;20258;-69
2022/10/20 04:16:30;;;;;;;23.60;13.90;;;;;;;;;;5073104;28;20296;-69
2022/10/20 04:18:56;;;;;;;17.80;13.53;;;;;;;;;;5088471;28;20177;-69
2022/10/20 04:21:22;;;;;;;16.80;13.53;;;;;;;;;;5072895;28;20222;-70
2022/10/20 04:23:48;;;;;;;16.73;12.37;;;;;;;;;;5088490;28;20185;-69
2022/10/20 04:26:15;;;;;;;15.50;13.10;;;;;;;;;;5088442;28;20178;-69
2022/10/20 04:28:41;;;;;;;19.37;13.77;;;;;;;;;;5088500;28;20219;-69
2022/10/20 04:31:07;;;;;;;17.10;12.73;;;;;;;;;;5088486;28;20181;-69
2022/10/20 04:33:34;;;;;;;19.73;13.47;;;;;;;;;;5073053;28;20545;-69
2022/10/20 04:36:07;;;;;;;20.37;12.77;;;;;;;;;;5072899;28;20232;-69
2022/10/20 04:38:34;;;;;;;16.13;13.27;;;;;;;;;;5088281;28;20197;-69
2022/10/20 04:41:00;;;;;;;21.67;13.93;;;;;;;;;;5088517;28;20181;-69
2022/10/20 04:43:26;;;;;;;15.43;12.50;;;;;;;;;;5073179;28;20202;-70
2022/10/20 04:45:57;;;;;;;19.53;13.03;;;;;;;;;;5073437;28;20185;-69
2022/10/20 04:48:23;;;;;;;22.90;13.13;;;;;;;;;;5088264;28;20300;-69
2022/10/20 04:50:59;;;;;;;26.83;14.23;;;;;;;;;;5089187;28;20189;-70
2022/10/20 04:53:25;;;;;;;21.10;13.57;;;;;;;;;;5073114;28;20197;-69
2022/10/20 04:55:54;;;;;;;21.37;14.27;;;;;;;;;;5073063;28;20178;-68
2022/10/20 04:58:20;;;;;;;23.17;14.03;;;;;;;;;;5073062;28;20194;-69
2022/10/20 05:00:46;;;;;;;20.27;13.87;;;;;;;;;;5073253;28;20177;-69
2022/10/20 05:03:12;;;;;;;18.63;13.27;;;;;;;;;;5072871;28;20206;-69
2022/10/20 05:05:38;;;;;;;18.60;13.77;;;;;;;;;;5073199;28;20188;-69
2022/10/20 05:08:04;;;;;;;19.13;13.30;;;;;;;;;;5072647;28;20251;-69
2022/10/20 05:10:30;;;;;;;19.47;12.87;;;;;;;;;;5088321;28;20195;-69
2022/10/20 05:12:56;;;;;;;20.77;13.57;;;;;;;;;;5072698;28;20604;-69
2022/10/20 05:15:22;;;;;;;30.17;14.83;;;;;;;;;;5072507;28;20518;-69
2022/10/20 05:17:48;;;;;;;27.37;14.43;;;;;;;;;;5072907;28;20244;-69
2022/10/20 05:20:14;;;;;;;22.73;13.33;;;;;;;;;;5076430;28;20649;-69
2022/10/20 05:22:40;;;;;;;32.13;14.37;;;;;;;;;;5091911;28;20239;-69
2022/10/20 05:25:06;;;;;;;24.23;14.53;;;;;;;;;;5076465;28;20181;-69
2022/10/20 05:27:32;;;;;;;25.53;14.33;;;;;;;;;;5076155;28;20247;-69
2022/10/20 05:29:58;;;;;;;20.80;13.40;;;;;;;;;;5076066;28;20174;-69
2022/10/20 05:32:24;;;;;;;23.57;13.57;;;;;;;;;;5076277;28;20622;-69
2022/10/20 05:34:49;;;;;;;34.17;14.43;;;;;;;;;;5076316;28;20181;-69
2022/10/20 05:37:15;;;;;;;35.43;15.40;;;;;;;;;;5091527;28;20788;-69
2022/10/20 05:39:42;;;;;;;21.80;14.33;;;;;;;;;;5076124;28;20206;-69
2022/10/20 05:42:08;;;;;;;42.17;14.57;;;;;;;;;;5075996;28;20244;-69
2022/10/20 05:44:34;;;;;;;22.73;14.87;;;;;;;;;;5075922;28;20220;-69
2022/10/20 05:47:00;;;;;;;23.80;14.90;;;;;;;;;;5075598;28;20244;-69
2022/10/20 05:49:25;;;;;;;27.60;14.50;;;;;;;;;;5075827;28;20181;-69
2022/10/20 05:51:51;;;;;;;23.57;15.17;;;;;;;;;;5091230;28;20197;-69
2022/10/20 05:54:17;;;;;;;27.33;14.53;;;;;;;;;;5092676;28;20198;-69
2022/10/20 05:56:44;;;;;;;30.47;15.10;;;;;;;;;;5075557;28;20189;-69
2022/10/20 05:59:10;;;;;;;26.50;14.97;;;;;;;;;;5076100;28;20181;-69
2022/10/20 06:01:49;;;;;;;24.47;14.63;;;;;;;;;;5091026;28;20185;-69
2022/10/20 06:04:22;;;;;;;22.57;14.27;;;;;;;;;;5091120;28;20193;-69
2022/10/20 06:06:48;;;;;;;30.37;15.97;;;;;;;;;;5075750;28;20190;-69
2022/10/20 06:09:14;;;;;;;25.33;15.00;;;;;;;;;;5090775;28;20673;-69
2022/10/20 06:11:40;;;;;;;23.77;15.10;;;;;;;;;;5075335;28;20182;-70
2022/10/20 06:14:07;;;;;;;28.27;16.23;;;;;;;;;;5090606;28;20623;-71
2022/10/20 06:16:33;;;;;;;29.03;15.30;;;;;;;;;;5090703;28;20247;-69
2022/10/20 06:19:00;;;;;;;23.50;14.57;;;;;;;;;;5090758;28;20670;-69
2022/10/20 06:21:28;;;;;;;27.00;15.00;;;;;;;;;;5090747;28;20185;-69
2022/10/20 06:23:54;;;;;;;22.43;14.97;;;;;;;;;;5075116;28;20185;-69
2022/10/20 06:26:22;;;;;;;24.30;14.03;;;;;;;;;;5090650;28;20291;-69
2022/10/20 06:28:49;;;;;;;18.53;13.83;;;;;;;;;;5090656;28;20235;-69
2022/10/20 06:31:23;;;;;;;16.57;12.73;;;;;;;;;;5089732;28;20182;-69
2022/10/20 06:33:49;;;;;;;17.77;13.13;;;;;;;;;;5090461;28;20194;-69
2022/10/20 06:36:16;;;;;;;16.40;12.37;;;;;;;;;;5074654;28;20642;-69
2022/10/20 06:38:42;;;;;;;16.70;12.00;;;;;;;;;;5075107;28;20178;-69
2022/10/20 06:41:09;;;;;;;19.00;12.43;;;;;;;;;;5074613;28;20650;-69
2022/10/20 06:43:35;;;;;;;18.57;12.47;;;;;;;;;;5074927;28;20185;-69
2022/10/20 06:46:03;;;;;;;19.17;12.07;;;;;;;;;;5090311;28;20242;-69
2022/10/20 06:48:29;;;;;;;19.23;11.53;;;;;;;;;;5090051;28;20253;-69
2022/10/20 06:50:56;;;;;;;17.10;11.70;;;;;;;;;;5074630;28;20213;-69
2022/10/20 06:53:22;;;;;;;13.70;11.00;;;;;;;;;;5074565;28;20246;-69
2022/10/20 06:55:58;;;;;;;17.20;10.00;;;;;;;;;;5090135;28;20181;-70
2022/10/20 06:58:24;;;;;;;13.30;9.33;;;;;;;;;;5074399;28;20189;-69
2022/10/20 07:00:59;;;;;;;14.77;9.63;;;;;;;;;;5089981;28;20186;-69
2022/10/20 07:03:26;;;;;;;19.97;9.43;;;;;;;;;;5089970;28;20185;-69
2022/10/20 07:05:52;;;;;;;12.23;9.00;;;;;;;;;;5090020;28;20182;-69
2022/10/20 07:08:17;;;;;;;11.57;9.20;;;;;;;;;;5074490;28;20217;-69
2022/10/20 07:10:43;;;;;;;15.27;9.87;;;;;;;;;;5074188;28;20548;-69
2022/10/20 07:13:09;;;;;;;14.07;10.57;;;;;;;;;;5074429;28;20669;-69
2022/10/20 07:15:35;;;;;;;16.87;10.13;;;;;;;;;;5074307;28;20185;-69
2022/10/20 07:18:01;;;;;;;19.30;11.60;;;;;;;;;;5074061;28;20193;-69
2022/10/20 07:20:27;;;;;;;18.33;10.63;;;;;;;;;;5074411;28;20591;-70
2022/10/20 07:22:53;;;;;;;12.37;9.87;;;;;;;;;;5073806;28;20664;-69
2022/10/20 07:25:21;;;;;;;16.47;9.90;;;;;;;;;;5089866;28;20641;-70
2022/10/20 07:27:47;;;;;;;12.83;10.00;;;;;;;;;;5089400;28;20202;-69
2022/10/20 07:30:14;;;;;;;11.10;8.77;;;;;;;;;;5073920;28;20193;-69
2022/10/20 07:32:40;;;;;;;16.57;9.87;;;;;;;;;;5089306;28;20209;-69
2022/10/20 07:35:06;;;;;;;13.07;10.77;;;;;;;;;;5089370;28;20173;-70
2022/10/20 07:37:32;;;;;;;11.53;9.90;;;;;;;;;;5073903;28;20194;-69
2022/10/20 07:39:58;;;;;;;13.57;10.53;;;;;;;;;;5089373;28;20178;-69
2022/10/20 07:42:24;;;;;;;10.03;8.27;;;;;;;;;;5073406;28;20177;-69
2022/10/20 07:44:50;;;;;;;10.47;9.33;;;;;;;;;;5073821;28;20174;-70
2022/10/20 07:47:16;;;;;;;9.77;8.47;;;;;;;;;;5089175;28;20297;-70
2022/10/20 07:49:42;;;;;;;11.90;9.57;;;;;;;;;;5089149;28;20667;-69
2022/10/20 07:52:08;;;;;;;22.17;14.37;;;;;;;;;;5073953;28;20196;-69
2022/10/20 07:54:34;;;;;;;28.87;16.60;;;;;;;;;;5073387;28;20557;-69
2022/10/20 07:57:00;;;;;;;34.17;20.67;;;;;;;;;;5088913;28;20198;-69
2022/10/20 07:59:27;;;;;;;38.47;22.23;;;;;;;;;;5073515;28;20180;-70
2022/10/20 08:01:53;;;;;;;12.03;9.40;;;;;;;;;;5073292;28;20170;-69
2022/10/20 08:04:19;;;;;;;13.07;9.60;;;;;;;;;;5089002;28;20235;-69
2022/10/20 08:06:46;;;;;;;14.93;10.30;;;;;;;;;;5073215;28;20212;-69
2022/10/20 08:09:12;;;;;;;19.53;12.10;;;;;;;;;;5088966;28;20180;-69
2022/10/20 08:11:38;;;;;;;16.53;10.53;;;;;;;;;;5073453;28;20264;-69
2022/10/20 08:14:03;;;;;;;12.47;8.63;;;;;;;;;;5073132;28;20285;-70
2022/10/20 08:16:29;;;;;;;9.70;8.40;;;;;;;;;;5074531;28;20205;-70
2022/10/20 08:18:55;;;;;;;13.50;8.47;;;;;;;;;;5090440;28;20189;-70
2022/10/20 08:21:22;;;;;;;14.47;8.60;;;;;;;;;;5090868;28;20177;-69
2022/10/20 08:23:49;;;;;;;11.57;8.10;;;;;;;;;;5075367;28;20308;-69
2022/10/20 08:26:20;;;;;;;11.03;8.37;;;;;;;;;;5088601;28;20540;-69
2022/10/20 08:28:47;;;;;;;10.03;8.33;;;;;;;;;;5073232;28;20189;-69
2022/10/20 08:31:13;;;;;;;13.97;10.17;;;;;;;;;;5073743;28;20177;-69
2022/10/20 08:33:39;;;;;;;12.07;9.10;;;;;;;;;;5073094;28;20213;-70
2022/10/20 08:36:10;;;;;;;17.40;8.27;;;;;;;;;;5088662;28;20192;-69
2022/10/20 08:38:36;;;;;;;13.03;9.47;;;;;;;;;;5088538;28;20231;-69
2022/10/20 08:41:04;;;;;;;9.70;8.70;;;;;;;;;;5072893;28;20184;-69
2022/10/20 08:43:31;;;;;;;19.27;9.07;;;;;;;;;;5074220;28;20192;-68
2022/10/20 08:45:57;;;;;;;11.17;9.13;;;;;;;;;;5075619;28;20519;-69
2022/10/20 08:48:25;;;;;;;13.03;9.83;;;;;;;;;;5074984;28;20215;-69
2022/10/20 08:50:52;;;;;;;12.97;10.57;;;;;;;;;;5092315;28;20638;-70
2022/10/20 08:53:19;;;;;;;12.03;9.20;;;;;;;;;;5074812;28;20229;-69
2022/10/20 08:55:45;;;;;;;14.50;8.53;;;;;;;;;;5092952;28;20177;-70
2022/10/20 08:58:13;;;;;;;11.83;10.33;;;;;;;;;;5076974;28;20194;-70
2022/10/20 09:00:40;;;;;;;12.37;8.77;;;;;;;;;;5077562;28;20252;-70
2022/10/20 09:03:12;;;;;;;11.67;9.13;;;;;;;;;;5077276;28;20633;-70
2022/10/20 09:05:41;;;;;;;14.67;9.53;;;;;;;;;;5092487;28;20188;-70
2022/10/20 09:08:07;;;;;;;10.70;8.60;;;;;;;;;;5092433;28;20212;-69
2022/10/20 09:10:35;;;;;;;10.70;8.27;;;;;;;;;;5092337;28;20181;-70
2022/10/20 09:13:02;;;;;;;8.47;7.57;;;;;;;;;;5076525;28;20194;-69
2022/10/20 09:15:28;;;;;;;14.43;9.47;;;;;;;;;;5077085;28;20572;-70
2022/10/20 09:18:03;;;;;;;9.83;8.33;;;;;;;;;;5092405;28;20218;-70
2022/10/20 09:20:29;;;;;;;13.07;8.07;;;;;;;;;;5076492;28;20228;-70
2022/10/20 09:22:55;;;;;;;11.87;8.33;;;;;;;;;;5076512;28;20291;-70
2022/10/20 09:25:26;;;;;;;12.70;8.30;;;;;;;;;;5076782;28;20178;-70
2022/10/20 09:27:52;;;;;;;17.93;7.80;;;;;;;;;;5076385;28;20240;-70
2022/10/20 09:30:34;;;;;;;10.30;7.83;;;;;;;;;;5076091;28;20677;-70
2022/10/20 09:33:18;;;;;;;14.30;8.37;;;;;;;;;;5091673;28;20205;-70
2022/10/20 09:35:46;;;;;;;12.13;7.93;;;;;;;;;;5076268;28;20215;-71
2022/10/20 09:38:18;;;;;;;14.40;8.60;;;;;;;;;;5091571;28;20237;-70
2022/10/20 09:40:45;;;;;;;10.13;7.77;;;;;;;;;;5075904;28;20639;-70
2022/10/20 09:43:16;;;;;;;14.43;11.07;;;;;;;;;;5076080;28;20217;-70
2022/10/20 09:45:55;;;;;;;13.53;9.37;;;;;;;;;;5076420;28;20162;-70
2022/10/20 09:48:25;;;;;;;14.13;9.67;;;;;;;;;;5075715;28;20262;-70
2022/10/20 09:50:54;;;;;;;10.47;9.37;;;;;;;;;;5091395;28;20182;-70
2022/10/20 09:53:23;;;;;;;17.17;9.47;;;;;;;;;;5091166;28;20599;-70
2022/10/20 09:55:50;;;;;;;12.07;8.60;;;;;;;;;;5091332;28;20272;-70
2022/10/20 09:58:19;;;;;;;11.87;9.17;;;;;;;;;;5075529;28;20193;-70
2022/10/20 10:00:46;;;;;;;10.73;7.90;;;;;;;;;;5091148;28;20250;-70
2022/10/20 10:03:20;;;;;;;9.13;8.13;;;;;;;;;;5075955;28;20212;-70
2022/10/20 10:05:56;;;;;;;15.17;7.63;;;;;;;;;;5089748;28;20213;-70
2022/10/20 10:08:24;;;;;;;9.63;8.40;;;;;;;;;;5075332;28;20661;-70
2022/10/20 10:11:13;;;;;;;12.80;8.03;;;;;;;;;;5075422;28;20182;-70
2022/10/20 10:13:42;;;;;;;10.87;7.90;;;;;;;;;;5090874;28;20733;-70
2022/10/20 10:16:09;;;;;;;13.17;8.30;;;;;;;;;;5075292;28;20205;-70
2022/10/20 10:18:36;;;;;;;17.33;8.13;;;;;;;;;;5090664;28;20669;-70
2022/10/20 10:21:04;;;;;;;12.73;9.07;;;;;;;;;;5091091;28;20605;-69
2022/10/20 10:23:32;;;;;;;11.67;9.20;;;;;;;;;;5074951;28;20181;-70
2022/10/20 10:25:58;;;;;;;15.27;8.97;;;;;;;;;;5090565;28;20558;-70
2022/10/20 10:28:24;;;;;;;12.17;9.20;;;;;;;;;;5090509;28;20209;-70
2022/10/20 10:31:04;;;;;;;10.83;8.57;;;;;;;;;;5075053;28;20182;-70
2022/10/20 10:33:32;;;;;;;9.43;8.53;;;;;;;;;;5090568;28;20205;-70
2022/10/20 10:35:58;;;;;;;13.33;8.37;;;;;;;;;;5074862;28;20197;-70
2022/10/20 10:38:24;;;;;;;10.57;7.90;;;;;;;;;;5090318;28;20227;-69
2022/10/20 10:41:09;;;;;;;14.00;8.43;;;;;;;;;;5074717;28;20173;-70
2022/10/20 10:43:42;;;;;;;12.20;8.30;;;;;;;;;;5090397;28;20185;-70
2022/10/20 10:46:11;;;;;;;11.80;8.03;;;;;;;;;;5090410;28;20197;-70
2022/10/20 10:48:44;;;;;;;12.03;8.97;;;;;;;;;;5074436;28;20214;-69
2022/10/20 10:51:17;;;;;;;9.20;8.30;;;;;;;;;;5074965;28;20180;-70
2022/10/20 10:53:53;;;;;;;10.57;8.73;;;;;;;;;;5074459;28;20213;-70
2022/10/20 10:56:37;;;;;;;10.47;8.67;;;;;;;;;;5074792;28;20162;-70
2022/10/20 10:59:05;;;;;;;14.83;9.73;;;;;;;;;;5074533;28;20174;-70
2022/10/20 11:01:42;;;;;;;11.53;8.33;;;;;;;;;;5074690;28;20186;-70
2022/10/20 11:04:20;;;;;;;12.10;8.70;;;;;;;;;;5074764;28;20633;-69
2022/10/20 11:06:46;;;;;;;11.80;8.50;;;;;;;;;;5074303;28;20631;-69
2022/10/20 11:09:23;;;;;;;18.43;8.90;;;;;;;;;;5074203;28;20176;-70
2022/10/20 11:12:01;;;;;;;14.60;8.27;;;;;;;;;;5089913;28;20223;-70
2022/10/20 11:14:34;;;;;;;12.80;9.00;;;;;;;;;;5073931;28;20597;-70
2022/10/20 11:17:00;;;;;;;12.00;8.93;;;;;;;;;;5073578;28;20198;-70
2022/10/20 11:19:45;;;;;;;9.87;8.87;;;;;;;;;;5089836;28;20178;-70
2022/10/20 11:22:14;;;;;;;15.23;9.53;;;;;;;;;;5089806;28;20174;-69
2022/10/20 11:25:12;;;;;;;16.17;9.10;;;;;;;;;;5089728;28;20190;-69
2022/10/20 11:27:38;;;;;;;10.67;9.47;;;;;;;;;;5040707;28;20213;-69
2022/10/20 11:30:19;;;;;;;13.20;9.47;;;;;;;;;;5075002;28;20181;-69
2022/10/20 11:32:49;;;;;;;15.53;10.23;;;;;;;;;;5074499;28;20567;-69
2022/10/20 11:35:21;;;;;;;13.90;9.60;;;;;;;;;;5090362;28;20181;-69
2022/10/20 11:37:47;;;;;;;15.43;10.23;;;;;;;;;;5074582;28;20227;-69
2022/10/20 11:40:22;;;;;;;15.77;10.47;;;;;;;;;;5089422;28;20182;-69
2022/10/20 11:42:54;;;;;;;13.80;10.10;;;;;;;;;;5073950;28;20162;-68
2022/10/20 11:45:32;;;;;;;14.40;11.13;;;;;;;;;;5073533;28;20231;-69
2022/10/20 11:48:10;;;;;;;16.17;11.50;;;;;;;;;;5073426;28;20220;-69
2022/10/20 11:50:37;;;;;;;16.67;12.00;;;;;;;;;;5089272;28;20191;-69
2022/10/20 11:53:03;;;;;;;16.90;11.93;;;;;;;;;;5089037;28;20233;-69
2022/10/20 11:55:36;;;;;;;18.30;12.50;;;;;;;;;;5092818;22;20197;-71
2022/10/20 11:58:14;;;;;;;15.13;12.40;;;;;;;;;;5097214;28;20268;-70
2022/10/20 12:00:40;;;;;;;19.60;13.80;;;;;;;;;;5115012;28;20249;-71
2022/10/20 12:03:31;;;;;;;18.07;13.67;;;;;;;;;;5113194;28;20637;-70
2022/10/20 12:06:16;;;;;;;21.23;16.10;;;;;;;;;;5115051;28;20216;-70
2022/10/20 12:09:00;;;;;;;20.17;14.70;;;;;;;;;;5114241;28;20184;-68
2022/10/20 12:11:46;;;;;;;17.23;15.33;;;;;;;;;;5114993;28;20161;-70
2022/10/20 12:14:15;;;;;;;20.60;15.63;;;;;;;;;;5113422;28;20231;-70
2022/10/20 12:17:01;;;;;;;18.77;15.47;;;;;;;;;;5114949;28;20192;-70
2022/10/20 12:19:34;;;;;;;17.37;15.57;;;;;;;;;;5124321;28;20219;-70
2022/10/20 12:22:03;;;;;;;21.10;15.83;;;;;;;;;;5129837;28;20169;-71
2022/10/20 12:24:40;;;;;;;20.30;15.63;;;;;;;;;;5127858;28;20241;-70
2022/10/20 12:27:09;;;;;;;22.40;16.40;;;;;;;;;;5120586;28;20200;-71
2022/10/20 12:29:35;;;;;;;21.77;16.93;;;;;;;;;;5112595;28;20176;-71
2022/10/20 12:32:20;;;;;;;21.87;16.70;;;;;;;;;;5114706;28;20275;-70
2022/10/20 12:34:46;;;;;;;24.93;16.37;;;;;;;;;;5114165;28;20207;-71
2022/10/20 12:37:16;;;;;;;23.63;17.30;;;;;;;;;;5114021;28;20196;-71
2022/10/20 12:39:43;;;;;;;24.80;18.37;;;;;;;;;;5114648;28;20176;-69
2022/10/20 12:42:18;;;;;;;22.87;17.90;;;;;;;;;;5112765;28;20275;-71
2022/10/20 12:44:45;;;;;;;26.60;19.00;;;;;;;;;;5114407;28;20255;-71
2022/10/20 12:47:24;;;;;;;23.67;18.10;;;;;;;;;;5114239;28;20197;-71
2022/10/20 12:50:00;;;;;;;21.80;18.60;;;;;;;;;;5112690;28;20187;-71
2022/10/20 12:52:44;;;;;;;23.97;17.83;;;;;;;;;;5114248;28;20183;-71
2022/10/20 12:55:37;;;;;;;24.20;19.30;;;;;;;;;;5114539;28;20160;-71
2022/10/20 12:58:29;;;;;;;21.83;19.27;;;;;;;;;;5109938;28;20196;-71
2022/10/20 13:00:57;;;;;;;24.30;18.00;;;;;;;;;;5109701;28;20275;-71
2022/10/20 13:03:35;;;;;;;23.33;17.40;;;;;;;;;;5114582;28;20168;-71
2022/10/20 13:06:02;;;;;;;22.60;18.20;;;;;;;;;;5112948;28;20196;-71
2022/10/20 13:08:32;;;;;;;23.13;19.00;;;;;;;;;;5114162;28;20172;-71
2022/10/20 13:11:16;;;;;;;24.30;18.93;;;;;;;;;;5114036;28;20188;-71
2022/10/20 13:13:47;;;;;;;24.27;18.00;;;;;;;;;;5113650;28;20351;-71
2022/10/20 13:16:17;;;;;;;22.33;18.37;;;;;;;;;;5114006;28;20219;-71
2022/10/20 13:18:45;;;;;;;21.93;17.60;;;;;;;;;;5112415;28;20358;-68
2022/10/20 13:21:20;;;;;;;20.77;17.00;;;;;;;;;;5113701;28;20173;-68
2022/10/20 13:23:47;;;;;;;24.50;16.83;;;;;;;;;;5114310;28;20194;-69
2022/10/20 13:26:21;;;;;;;20.50;17.30;;;;;;;;;;5113303;28;20235;-71
2022/10/20 13:28:48;;;;;;;24.47;16.87;;;;;;;;;;5115375;28;20200;-70
2022/10/20 13:31:23;;;;;;;19.43;16.40;;;;;;;;;;5112220;28;20208;-71
2022/10/20 13:33:58;;;;;;;23.67;16.73;;;;;;;;;;5113298;28;20204;-71
2022/10/20 13:36:39;;;;;;;18.43;15.93;;;;;;;;;;5113448;28;20274;-71
2022/10/20 13:39:25;;;;;;;20.23;15.37;;;;;;;;;;5112759;28;20173;-71
2022/10/20 13:42:01;;;;;;;19.70;16.37;;;;;;;;;;5116794;28;20184;-71
2022/10/20 13:44:33;;;;;;;17.37;14.10;;;;;;;;;;5116848;28;20212;-71
2022/10/20 13:47:17;;;;;;;15.80;14.20;;;;;;;;;;5116878;28;20245;-71
2022/10/20 13:49:43;;;;;;;18.23;14.03;;;;;;;;;;5117146;28;20176;-70
2022/10/20 13:52:13;;;;;;;18.10;14.17;;;;;;;;;;5116930;28;20180;-70
2022/10/20 13:54:43;;;;;;;16.53;12.80;;;;;;;;;;5117134;28;20200;-72
2022/10/20 13:57:14;;;;;;;14.73;13.20;;;;;;;;;;5115510;28;20208;-70
2022/10/20 13:59:54;;;;;;;19.03;13.17;;;;;;;;;;5116837;28;20171;-71
2022/10/20 14:02:28;;;;;;;18.00;12.53;;;;;;;;;;5116856;28;20152;-70
2022/10/20 14:05:12;;;;;;;12.70;11.40;;;;;;;;;;5116874;28;20211;-71
2022/10/20 14:07:42;;;;;;;18.63;12.33;;;;;;;;;;5116844;28;20218;-70
2022/10/20 14:10:44;;;;;;;16.07;12.10;;;;;;;;;;5117065;28;20173;-70
2022/10/20 14:13:12;;;;;;;15.03;11.80;;;;;;;;;;5053804;28;20216;-71
2022/10/20 14:15:38;;;;;;;13.07;11.47;;;;;;;;;;5105905;28;20707;-71
2022/10/20 14:18:06;;;;;;;15.53;12.87;;;;;;;;;;5117385;28;20176;-70
2022/10/20 14:20:36;;;;;;;20.27;12.77;;;;;;;;;;5116860;28;20225;-71
2022/10/20 14:23:02;;;;;;;14.97;11.83;;;;;;;;;;5115137;28;20184;-70
2022/10/20 14:25:30;;;;;;;16.50;11.50;;;;;;;;;;5116540;28;20215;-70
2022/10/20 14:27:56;;;;;;;14.00;10.67;;;;;;;;;;5116665;28;20168;-70
2022/10/20 14:30:23;;;;;;;11.87;9.80;;;;;;;;;;5115074;28;20627;-70
2022/10/20 14:32:49;;;;;;;12.67;10.87;;;;;;;;;;5114928;28;20176;-70
2022/10/20 14:35:17;;;;;;;12.13;9.90;;;;;;;;;;5116467;28;20181;-70